sensor_id;sensor_type;location;lat;lon;timestamp;pressure;altitude;pressure_sealevel;temperature;humidity
49529;BME280;35423;37.320;-121.762;2023-03-20T00:00:29;99271.32;;;26.27;24.13
49529;BME280;35423;37.320;-121.762;2023-03-20T00:02:50;99275.05;;;26.19;24.35
49529;BME280;35423;37.320;-121.762;2023-03-20T00:05:23;99280.90;;;26.00;24.55
49529;BME280;35423;37.320;-121.762;2023-03-20T00:07:48;99277.19;;;25.81;24.82
49529;BME280;35423;37.320;-121.762;2023-03-20T00:10:16;99283.89;;;25.70;24.87
49529;BME280;35423;37.320;-121.762;2023-03-20T00:12:42;99295.78;;;25.56;24.99
49529;BME280;35423;37.320;-121.762;2023-03-20T00:15:21;99298.90;;;25.42;25.09
49529;BME280;35423;37.320;-121.762;2023-03-20T00:17:38;99301.52;;;25.31;25.24
49529;BME280;35423;37.320;-121.762;2023-03-20T00:20:15;99302.82;;;25.20;25.40
49529;BME280;35423;37.320;-121.762;2023-03-20T00:22:38;99294.56;;;24.97;25.61
49529;BME280;35423;37.320;-121.762;2023-03-20T00:25:14;99294.14;;;24.85;25.80
49529;BME280;35423;37.320;-121.762;2023-03-20T00:27:40;99298.05;;;25.05;25.77
49529;BME280;35423;37.320;-121.762;2023-03-20T00:30:15;99304.38;;;24.89;25.90
49529;BME280;35423;37.320;-121.762;2023-03-20T00:32:46;99302.77;;;24.54;25.92
49529;BME280;35423;37.320;-121.762;2023-03-20T00:35:19;99300.87;;;25.00;26.06
49529;BME280;35423;37.320;-121.762;2023-03-20T00:37:39;99300.21;;;24.69;26.09
49529;BME280;35423;37.320;-121.762;2023-03-20T00:40:07;99296.55;;;24.86;26.22
49529;BME280;35423;37.320;-121.762;2023-03-20T00:42:30;99292.61;;;24.41;26.17
49529;BME280;35423;37.320;-121.762;2023-03-20T00:45:03;99298.65;;;24.73;26.25
49529;BME280;35423;37.320;-121.762;2023-03-20T00:47:27;99305.55;;;24.42;26.40
49529;BME280;35423;37.320;-121.762;2023-03-20T00:49:54;99310.14;;;24.37;26.47
49529;BME280;35423;37.320;-121.762;2023-03-20T00:52:22;99318.02;;;24.35;26.56
49529;BME280;35423;37.320;-121.762;2023-03-20T00:54:45;99328.85;;;24.38;26.85
49529;BME280;35423;37.320;-121.762;2023-03-20T00:57:14;99313.72;;;24.33;26.85
49529;BME280;35423;37.320;-121.762;2023-03-20T00:59:48;99316.01;;;24.40;26.81
49529;BME280;35423;37.320;-121.762;2023-03-20T01:02:10;99316.16;;;24.39;26.81
49529;BME280;35423;37.320;-121.762;2023-03-20T01:04:40;99320.35;;;24.13;26.82
49529;BME280;35423;37.320;-121.762;2023-03-20T01:07:04;99332.33;;;24.15;26.89
49529;BME280;35423;37.320;-121.762;2023-03-20T01:09:30;99329.72;;;24.44;26.93
49529;BME280;35423;37.320;-121.762;2023-03-20T01:11:55;99326.54;;;23.96;26.91
49529;BME280;35423;37.320;-121.762;2023-03-20T01:14:21;99331.58;;;24.35;27.00
49529;BME280;35423;37.320;-121.762;2023-03-20T01:16:48;99337.26;;;24.30;26.96
49529;BME280;35423;37.320;-121.762;2023-03-20T01:19:15;99340.82;;;24.20;27.07
49529;BME280;35423;37.320;-121.762;2023-03-20T01:21:46;99340.50;;;23.96;27.14
49529;BME280;35423;37.320;-121.762;2023-03-20T01:24:11;99338.02;;;24.19;27.14
49529;BME280;35423;37.320;-121.762;2023-03-20T01:26:40;99339.37;;;24.14;27.23
49529;BME280;35423;37.320;-121.762;2023-03-20T01:29:08;99339.22;;;24.10;27.47
49529;BME280;35423;37.320;-121.762;2023-03-20T01:31:30;99343.82;;;23.77;27.65
49529;BME280;35423;37.320;-121.762;2023-03-20T01:33:56;99350.32;;;23.78;27.74
49529;BME280;35423;37.320;-121.762;2023-03-20T01:36:26;99351.09;;;23.76;27.83
49529;BME280;35423;37.320;-121.762;2023-03-20T01:39:02;99352.72;;;24.00;27.96
49529;BME280;35423;37.320;-121.762;2023-03-20T01:41:31;99365.48;;;23.62;28.08
49529;BME280;35423;37.320;-121.762;2023-03-20T01:46:28;99359.50;;;23.74;28.30
49529;BME280;35423;37.320;-121.762;2023-03-20T01:49:00;99367.32;;;23.73;28.23
49529;BME280;35423;37.320;-121.762;2023-03-20T01:51:21;99365.45;;;23.79;28.09
49529;BME280;35423;37.320;-121.762;2023-03-20T01:54:00;99370.94;;;23.68;28.21
49529;BME280;35423;37.320;-121.762;2023-03-20T01:56:24;99372.12;;;23.58;28.62
49529;BME280;35423;37.320;-121.762;2023-03-20T01:58:54;99371.50;;;23.75;29.11
49529;BME280;35423;37.320;-121.762;2023-03-20T02:01:14;99380.11;;;23.42;29.20
49529;BME280;35423;37.320;-121.762;2023-03-20T02:03:38;99383.61;;;23.55;29.42
49529;BME280;35423;37.320;-121.762;2023-03-20T02:06:09;99388.30;;;23.29;29.61
49529;BME280;35423;37.320;-121.762;2023-03-20T02:08:38;99397.73;;;22.97;29.71
49529;BME280;35423;37.320;-121.762;2023-03-20T02:11:01;99396.34;;;23.15;29.91
49529;BME280;35423;37.320;-121.762;2023-03-20T02:13:30;99396.19;;;23.41;30.03
49529;BME280;35423;37.320;-121.762;2023-03-20T02:16:00;99403.54;;;22.85;30.08
49529;BME280;35423;37.320;-121.762;2023-03-20T02:18:23;99406.29;;;23.00;29.99
49529;BME280;35423;37.320;-121.762;2023-03-20T02:21:01;99407.28;;;23.17;29.86
49529;BME280;35423;37.320;-121.762;2023-03-20T02:30:42;99423.62;;;22.86;29.61
49529;BME280;35423;37.320;-121.762;2023-03-20T02:38:03;99452.79;;;22.33;29.90
49529;BME280;35423;37.320;-121.762;2023-03-20T02:40:25;99456.77;;;22.57;29.92
49529;BME280;35423;37.320;-121.762;2023-03-20T02:42:50;99455.15;;;22.54;29.91
49529;BME280;35423;37.320;-121.762;2023-03-20T02:45:18;99456.57;;;22.52;29.76
49529;BME280;35423;37.320;-121.762;2023-03-20T02:47:45;99462.69;;;22.68;29.73
49529;BME280;35423;37.320;-121.762;2023-03-20T02:50:26;99474.89;;;22.62;29.76
49529;BME280;35423;37.320;-121.762;2023-03-20T02:52:47;99481.22;;;22.61;29.67
49529;BME280;35423;37.320;-121.762;2023-03-20T02:55:16;99483.70;;;22.31;29.78
49529;BME280;35423;37.320;-121.762;2023-03-20T02:57:43;99482.62;;;22.25;29.88
49529;BME280;35423;37.320;-121.762;2023-03-20T03:00:11;99478.86;;;22.44;29.85
49529;BME280;35423;37.320;-121.762;2023-03-20T03:02:36;99480.37;;;22.20;29.92
49529;BME280;35423;37.320;-121.762;2023-03-20T03:05:06;99485.60;;;22.63;29.89
49529;BME280;35423;37.320;-121.762;2023-03-20T03:07:31;99488.74;;;22.33;29.93
49529;BME280;35423;37.320;-121.762;2023-03-20T03:09:55;99486.91;;;22.05;29.93
49529;BME280;35423;37.320;-121.762;2023-03-20T03:12:20;99481.46;;;21.99;29.99
49529;BME280;35423;37.320;-121.762;2023-03-20T03:14:48;99472.06;;;21.95;30.04
49529;BME280;35423;37.320;-121.762;2023-03-20T03:17:13;99479.51;;;21.95;30.20
49529;BME280;35423;37.320;-121.762;2023-03-20T03:19:38;99491.15;;;22.38;30.27
49529;BME280;35423;37.320;-121.762;2023-03-20T03:22:03;99482.57;;;21.97;30.21
49529;BME280;35423;37.320;-121.762;2023-03-20T03:24:31;99484.82;;;21.94;30.01
49529;BME280;35423;37.320;-121.762;2023-03-20T03:26:55;99492.06;;;22.13;30.04
49529;BME280;35423;37.320;-121.762;2023-03-20T03:29:29;99494.43;;;21.84;30.06
49529;BME280;35423;37.320;-121.762;2023-03-20T03:31:55;99494.00;;;22.02;29.97
49529;BME280;35423;37.320;-121.762;2023-03-20T03:34:23;99493.48;;;21.73;30.12
49529;BME280;35423;37.320;-121.762;2023-03-20T03:36:50;99490.48;;;21.94;30.03
49529;BME280;35423;37.320;-121.762;2023-03-20T03:39:21;99490.06;;;21.84;30.10
49529;BME280;35423;37.320;-121.762;2023-03-20T03:41:40;99499.50;;;21.80;30.29
49529;BME280;35423;37.320;-121.762;2023-03-20T03:44:10;99506.66;;;22.03;30.29
49529;BME280;35423;37.320;-121.762;2023-03-20T03:46:36;99512.95;;;21.81;30.29
49529;BME280;35423;37.320;-121.762;2023-03-20T03:48:57;99515.78;;;21.76;30.39
49529;BME280;35423;37.320;-121.762;2023-03-20T03:51:29;99518.43;;;21.78;30.38
49529;BME280;35423;37.320;-121.762;2023-03-20T03:53:59;99522.94;;;21.99;30.48
49529;BME280;35423;37.320;-121.762;2023-03-20T03:56:28;99527.70;;;21.99;30.48
49529;BME280;35423;37.320;-121.762;2023-03-20T03:58:55;99525.05;;;21.76;30.52
49529;BME280;35423;37.320;-121.762;2023-03-20T04:01:28;99523.29;;;22.05;30.31
49529;BME280;35423;37.320;-121.762;2023-03-20T04:03:58;99518.38;;;21.96;30.29
49529;BME280;35423;37.320;-121.762;2023-03-20T04:06:23;99517.57;;;21.72;30.26
49529;BME280;35423;37.320;-121.762;2023-03-20T04:08:48;99511.83;;;21.71;30.15
49529;BME280;35423;37.320;-121.762;2023-03-20T04:11:16;99516.86;;;21.96;30.10
49529;BME280;35423;37.320;-121.762;2023-03-20T04:13:41;99521.84;;;21.76;30.05
49529;BME280;35423;37.320;-121.762;2023-03-20T04:16:11;99517.66;;;21.71;29.98
49529;BME280;35423;37.320;-121.762;2023-03-20T04:18:35;99518.64;;;21.91;30.10
49529;BME280;35423;37.320;-121.762;2023-03-20T04:21:01;99513.16;;;21.66;30.13
49529;BME280;35423;37.320;-121.762;2023-03-20T04:23:27;99518.29;;;21.82;30.28
49529;BME280;35423;37.320;-121.762;2023-03-20T04:25:56;99527.94;;;21.60;30.37
49529;BME280;35423;37.320;-121.762;2023-03-20T04:28:22;99530.05;;;21.81;30.39
49529;BME280;35423;37.320;-121.762;2023-03-20T04:30:52;99530.15;;;21.80;30.29
49529;BME280;35423;37.320;-121.762;2023-03-20T04:33:17;99537.60;;;21.77;30.28
49529;BME280;35423;37.320;-121.762;2023-03-20T04:35:43;99544.58;;;21.74;30.22
49529;BME280;35423;37.320;-121.762;2023-03-20T04:38:10;99550.80;;;21.50;30.24
49529;BME280;35423;37.320;-121.762;2023-03-20T04:40:34;99553.59;;;21.70;30.23
49529;BME280;35423;37.320;-121.762;2023-03-20T04:42:59;99561.30;;;21.43;30.23
49529;BME280;35423;37.320;-121.762;2023-03-20T04:45:29;99559.11;;;21.63;30.26
49529;BME280;35423;37.320;-121.762;2023-03-20T04:48:01;99571.34;;;21.59;30.20
49529;BME280;35423;37.320;-121.762;2023-03-20T04:50:20;99582.57;;;21.55;30.17
49529;BME280;35423;37.320;-121.762;2023-03-20T04:52:47;99582.37;;;21.25;30.17
49529;BME280;35423;37.320;-121.762;2023-03-20T04:55:12;99591.94;;;21.42;30.23
49529;BME280;35423;37.320;-121.762;2023-03-20T04:57:40;99598.92;;;21.37;30.28
49529;BME280;35423;37.320;-121.762;2023-03-20T05:00:17;99607.84;;;21.39;30.22
49529;BME280;35423;37.320;-121.762;2023-03-20T05:02:35;99618.47;;;21.36;30.19
49529;BME280;35423;37.320;-121.762;2023-03-20T05:05:01;99622.52;;;21.57;30.24
49529;BME280;35423;37.320;-121.762;2023-03-20T05:07:27;99629.79;;;21.29;30.26
49529;BME280;35423;37.320;-121.762;2023-03-20T05:09:53;99630.98;;;21.51;30.25
49529;BME280;35423;37.320;-121.762;2023-03-20T05:12:19;99621.88;;;21.17;30.33
49529;BME280;35423;37.320;-121.762;2023-03-20T05:14:47;99618.25;;;21.16;30.43
49529;BME280;35423;37.320;-121.762;2023-03-20T05:17:13;99621.73;;;21.43;30.37
49529;BME280;35423;37.320;-121.762;2023-03-20T05:19:41;99625.36;;;21.13;30.30
49529;BME280;35423;37.320;-121.762;2023-03-20T05:22:11;99632.99;;;21.34;30.45
49529;BME280;35423;37.320;-121.762;2023-03-20T05:24:36;99628.79;;;21.27;30.51
49529;BME280;35423;37.320;-121.762;2023-03-20T05:27:03;99615.59;;;20.96;30.42
49529;BME280;35423;37.320;-121.762;2023-03-20T05:29:28;99622.92;;;20.93;30.41
49529;BME280;35423;37.320;-121.762;2023-03-20T05:31:56;99629.61;;;20.91;30.34
49529;BME280;35423;37.320;-121.762;2023-03-20T05:34:23;99633.70;;;21.14;30.41
49529;BME280;35423;37.320;-121.762;2023-03-20T05:36:47;99641.16;;;21.13;30.45
49529;BME280;35423;37.320;-121.762;2023-03-20T05:39:14;99648.31;;;21.14;30.47
49529;BME280;35423;37.320;-121.762;2023-03-20T05:41:43;99652.59;;;21.18;30.49
49529;BME280;35423;37.320;-121.762;2023-03-20T05:44:11;99660.70;;;21.21;30.49
49529;BME280;35423;37.320;-121.762;2023-03-20T05:46:38;99664.38;;;21.45;30.48
49529;BME280;35423;37.320;-121.762;2023-03-20T05:49:03;99660.43;;;21.21;30.36
49529;BME280;35423;37.320;-121.762;2023-03-20T05:51:30;99655.72;;;20.90;30.38
49529;BME280;35423;37.320;-121.762;2023-03-20T05:53:58;99653.34;;;20.84;30.41
49529;BME280;35423;37.320;-121.762;2023-03-20T05:56:24;99654.78;;;20.80;30.28
49529;BME280;35423;37.320;-121.762;2023-03-20T05:58:54;99656.00;;;20.71;30.36
49529;BME280;35423;37.320;-121.762;2023-03-20T06:01:21;99657.99;;;20.94;30.43
49529;BME280;35423;37.320;-121.762;2023-03-20T06:03:46;99655.76;;;20.94;30.44
49529;BME280;35423;37.320;-121.762;2023-03-20T06:06:13;99652.76;;;20.91;30.44
49529;BME280;35423;37.320;-121.762;2023-03-20T06:08:41;99645.80;;;20.64;30.43
49529;BME280;35423;37.320;-121.762;2023-03-20T06:11:12;99643.34;;;20.62;30.39
49529;BME280;35423;37.320;-121.762;2023-03-20T06:13:39;99647.42;;;21.08;30.51
49529;BME280;35423;37.320;-121.762;2023-03-20T06:16:06;99653.25;;;21.07;30.61
49529;BME280;35423;37.320;-121.762;2023-03-20T06:18:31;99651.00;;;21.05;30.62
49529;BME280;35423;37.320;-121.762;2023-03-20T06:20:57;99647.73;;;21.02;30.62
49529;BME280;35423;37.320;-121.762;2023-03-20T06:23:26;99650.75;;;20.99;30.68
49529;BME280;35423;37.320;-121.762;2023-03-20T06:25:53;99661.84;;;20.51;30.69
49529;BME280;35423;37.320;-121.762;2023-03-20T06:28:17;99672.57;;;21.00;30.73
49529;BME280;35423;37.320;-121.762;2023-03-20T06:30:43;99665.99;;;20.77;30.71
49529;BME280;35423;37.320;-121.762;2023-03-20T06:33:08;99663.91;;;20.76;30.73
49529;BME280;35423;37.320;-121.762;2023-03-20T06:35:39;99672.96;;;20.75;30.77
49529;BME280;35423;37.320;-121.762;2023-03-20T06:38:07;99678.32;;;20.47;30.80
49529;BME280;35423;37.320;-121.762;2023-03-20T06:40:31;99683.99;;;20.73;30.89
49529;BME280;35423;37.320;-121.762;2023-03-20T06:42:59;99682.24;;;20.97;30.87
49529;BME280;35423;37.320;-121.762;2023-03-20T06:45:27;99675.62;;;20.44;30.79
49529;BME280;35423;37.320;-121.762;2023-03-20T06:47:55;99677.08;;;20.92;30.82
49529;BME280;35423;37.320;-121.762;2023-03-20T06:50:19;99677.82;;;20.90;30.88
49529;BME280;35423;37.320;-121.762;2023-03-20T06:52:44;99674.36;;;20.64;30.90
49529;BME280;35423;37.320;-121.762;2023-03-20T06:55:10;99678.28;;;20.83;30.93
49529;BME280;35423;37.320;-121.762;2023-03-20T06:57:37;99680.57;;;20.59;31.04
49529;BME280;35423;37.320;-121.762;2023-03-20T07:00:03;99682.88;;;20.81;31.02
49529;BME280;35423;37.320;-121.762;2023-03-20T07:02:28;99686.58;;;20.58;30.96
49529;BME280;35423;37.320;-121.762;2023-03-20T07:04:54;99683.05;;;20.82;30.80
49529;BME280;35423;37.320;-121.762;2023-03-20T07:07:23;99682.80;;;20.54;30.80
49529;BME280;35423;37.320;-121.762;2023-03-20T07:09:54;99687.02;;;20.51;30.77
49529;BME280;35423;37.320;-121.762;2023-03-20T07:12:22;99688.93;;;20.69;30.85
49529;BME280;35423;37.320;-121.762;2023-03-20T07:14:49;99683.72;;;20.64;30.93
49529;BME280;35423;37.320;-121.762;2023-03-20T07:17:14;99686.01;;;20.61;30.98
49529;BME280;35423;37.320;-121.762;2023-03-20T07:19:40;99678.86;;;20.34;31.03
49529;BME280;35423;37.320;-121.762;2023-03-20T07:22:19;99678.37;;;20.51;31.12
49529;BME280;35423;37.320;-121.762;2023-03-20T07:24:40;99683.15;;;20.46;31.21
49529;BME280;35423;37.320;-121.762;2023-03-20T07:27:06;99684.12;;;20.40;31.26
49529;BME280;35423;37.320;-121.762;2023-03-20T07:29:31;99687.85;;;20.33;31.27
49529;BME280;35423;37.320;-121.762;2023-03-20T07:31:57;99685.99;;;20.26;31.35
49529;BME280;35423;37.320;-121.762;2023-03-20T07:34:23;99700.05;;;20.46;31.45
49529;BME280;35423;37.320;-121.762;2023-03-20T07:36:54;99703.39;;;20.14;31.53
49529;BME280;35423;37.320;-121.762;2023-03-20T07:39:16;99704.58;;;20.13;31.45
49529;BME280;35423;37.320;-121.762;2023-03-20T07:41:48;99710.97;;;20.07;31.50
49529;BME280;35423;37.320;-121.762;2023-03-20T07:44:23;99712.56;;;20.04;31.50
49529;BME280;35423;37.320;-121.762;2023-03-20T07:46:53;99720.67;;;20.04;31.52
49529;BME280;35423;37.320;-121.762;2023-03-20T07:49:13;99737.90;;;20.05;31.50
49529;BME280;35423;37.320;-121.762;2023-03-20T07:51:41;99735.39;;;20.03;31.39
49529;BME280;35423;37.320;-121.762;2023-03-20T07:54:09;99748.57;;;20.30;31.48
49529;BME280;35423;37.320;-121.762;2023-03-20T07:56:34;99754.47;;;20.29;31.46
49529;BME280;35423;37.320;-121.762;2023-03-20T07:59:01;99750.77;;;20.06;31.31
49529;BME280;35423;37.320;-121.762;2023-03-20T08:01:28;99734.05;;;20.01;31.22
49529;BME280;35423;37.320;-121.762;2023-03-20T08:03:53;99728.21;;;19.96;31.36
49529;BME280;35423;37.320;-121.762;2023-03-20T08:06:19;99721.73;;;19.92;31.39
49529;BME280;35423;37.320;-121.762;2023-03-20T08:08:48;99713.65;;;20.17;31.34
49529;BME280;35423;37.320;-121.762;2023-03-20T08:11:20;99707.96;;;20.07;31.37
49529;BME280;35423;37.320;-121.762;2023-03-20T08:13:40;99708.58;;;19.73;31.39
49529;BME280;35423;37.320;-121.762;2023-03-20T08:16:10;99710.52;;;19.65;31.47
49529;BME280;35423;37.320;-121.762;2023-03-20T08:18:34;99710.05;;;19.86;31.53
49529;BME280;35423;37.320;-121.762;2023-03-20T08:21:00;99711.90;;;20.02;31.51
49529;BME280;35423;37.320;-121.762;2023-03-20T08:23:30;99722.10;;;19.74;31.57
49529;BME280;35423;37.320;-121.762;2023-03-20T08:25:54;99730.08;;;19.41;31.69
49529;BME280;35423;37.320;-121.762;2023-03-20T08:28:20;99738.43;;;19.68;31.71
49529;BME280;35423;37.320;-121.762;2023-03-20T08:30:47;99738.49;;;19.45;31.62
49529;BME280;35423;37.320;-121.762;2023-03-20T08:33:14;99732.42;;;19.72;31.58
49529;BME280;35423;37.320;-121.762;2023-03-20T08:35:38;99733.18;;;19.71;31.60
49529;BME280;35423;37.320;-121.762;2023-03-20T08:38:12;99748.75;;;19.95;31.70
49529;BME280;35423;37.320;-121.762;2023-03-20T08:40:38;99760.17;;;19.48;31.71
49529;BME280;35423;37.320;-121.762;2023-03-20T08:43:05;99755.02;;;19.76;31.70
49529;BME280;35423;37.320;-121.762;2023-03-20T08:45:32;99743.93;;;20.00;31.71
49529;BME280;35423;37.320;-121.762;2023-03-20T08:48:01;99746.31;;;19.93;31.75
49529;BME280;35423;37.320;-121.762;2023-03-20T08:50:36;99735.01;;;19.85;31.84
49529;BME280;35423;37.320;-121.762;2023-03-20T08:53:03;99734.27;;;19.79;31.96
49529;BME280;35423;37.320;-121.762;2023-03-20T08:55:29;99728.06;;;19.73;32.01
49529;BME280;35423;37.320;-121.762;2023-03-20T08:57:56;99736.39;;;19.49;32.03
49529;BME280;35423;37.320;-121.762;2023-03-20T09:00:23;99737.78;;;19.67;32.08
49529;BME280;35423;37.320;-121.762;2023-03-20T09:02:46;99738.48;;;19.85;32.16
49529;BME280;35423;37.320;-121.762;2023-03-20T09:05:11;99735.91;;;19.62;32.19
49529;BME280;35423;37.320;-121.762;2023-03-20T09:07:37;99735.73;;;19.66;32.22
49529;BME280;35423;37.320;-121.762;2023-03-20T09:10:10;99729.32;;;19.45;32.25
49529;BME280;35423;37.320;-121.762;2023-03-20T09:12:35;99721.70;;;19.67;32.31
49529;BME280;35423;37.320;-121.762;2023-03-20T09:15:00;99714.36;;;19.47;32.27
49529;BME280;35423;37.320;-121.762;2023-03-20T09:17:27;99717.19;;;19.20;32.17
49529;BME280;35423;37.320;-121.762;2023-03-20T09:20:01;99723.06;;;19.68;32.19
49529;BME280;35423;37.320;-121.762;2023-03-20T09:22:36;99732.02;;;19.64;32.05
49529;BME280;35423;37.320;-121.762;2023-03-20T09:25:02;99728.27;;;19.39;32.00
49529;BME280;35423;37.320;-121.762;2023-03-20T09:27:37;99734.87;;;19.64;31.98
49529;BME280;35423;37.320;-121.762;2023-03-20T09:30:11;99733.23;;;19.39;32.00
49529;BME280;35423;37.320;-121.762;2023-03-20T09:32:38;99731.82;;;19.55;31.92
49529;BME280;35423;37.320;-121.762;2023-03-20T09:35:11;99714.57;;;19.52;31.96
49529;BME280;35423;37.320;-121.762;2023-03-20T09:37:36;99716.73;;;19.49;31.94
49529;BME280;35423;37.320;-121.762;2023-03-20T09:40:02;99718.07;;;19.49;32.00
49529;BME280;35423;37.320;-121.762;2023-03-20T09:42:38;99717.35;;;19.48;32.12
49529;BME280;35423;37.320;-121.762;2023-03-20T09:45:04;99722.60;;;19.47;32.06
49529;BME280;35423;37.320;-121.762;2023-03-20T09:47:32;99718.85;;;19.47;32.07
49529;BME280;35423;37.320;-121.762;2023-03-20T09:50:02;99718.04;;;19.47;32.11
49529;BME280;35423;37.320;-121.762;2023-03-20T09:52:20;99719.13;;;19.45;32.16
49529;BME280;35423;37.320;-121.762;2023-03-20T09:54:45;99725.05;;;19.46;32.20
49529;BME280;35423;37.320;-121.762;2023-03-20T09:57:16;99727.60;;;19.47;32.21
49529;BME280;35423;37.320;-121.762;2023-03-20T09:59:34;99721.94;;;19.47;32.18
49529;BME280;35423;37.320;-121.762;2023-03-20T10:02:03;99714.43;;;19.46;32.06
49529;BME280;35423;37.320;-121.762;2023-03-20T10:04:27;99707.85;;;19.44;32.02
49529;BME280;35423;37.320;-121.762;2023-03-20T10:06:50;99706.77;;;19.44;32.02
49529;BME280;35423;37.320;-121.762;2023-03-20T10:09:17;99710.61;;;19.45;31.84
49529;BME280;35423;37.320;-121.762;2023-03-20T10:12:00;99710.63;;;19.40;31.87
49529;BME280;35423;37.320;-121.762;2023-03-20T10:14:24;99716.52;;;19.38;31.88
49529;BME280;35423;37.320;-121.762;2023-03-20T10:16:52;99715.01;;;19.38;31.90
49529;BME280;35423;37.320;-121.762;2023-03-20T10:19:18;99720.36;;;19.37;31.93
49529;BME280;35423;37.320;-121.762;2023-03-20T10:21:42;99717.53;;;19.13;31.84
49529;BME280;35423;37.320;-121.762;2023-03-20T10:24:04;99725.08;;;19.28;31.88
49529;BME280;35423;37.320;-121.762;2023-03-20T10:26:34;99732.33;;;19.21;31.89
49529;BME280;35423;37.320;-121.762;2023-03-20T10:29:00;99729.99;;;19.15;31.95
49529;BME280;35423;37.320;-121.762;2023-03-20T10:31:30;99725.73;;;19.34;32.06
49529;BME280;35423;37.320;-121.762;2023-03-20T10:33:58;99718.28;;;19.04;32.18
49529;BME280;35423;37.320;-121.762;2023-03-20T10:36:32;99719.98;;;19.24;32.32
49529;BME280;35423;37.320;-121.762;2023-03-20T10:39:00;99723.05;;;19.00;32.31
49529;BME280;35423;37.320;-121.762;2023-03-20T10:41:20;99723.84;;;18.77;32.17
49529;BME280;35423;37.320;-121.762;2023-03-20T10:43:48;99720.88;;;19.00;32.12
49529;BME280;35423;37.320;-121.762;2023-03-20T10:46:14;99715.34;;;18.99;32.07
49529;BME280;35423;37.320;-121.762;2023-03-20T10:48:39;99717.32;;;18.99;31.97
49529;BME280;35423;37.320;-121.762;2023-03-20T10:51:11;99718.70;;;18.99;31.92
49529;BME280;35423;37.320;-121.762;2023-03-20T10:53:35;99716.03;;;18.95;31.78
49529;BME280;35423;37.320;-121.762;2023-03-20T10:56:02;99706.73;;;18.91;31.75
49529;BME280;35423;37.320;-121.762;2023-03-20T10:58:27;99709.05;;;18.92;31.58
49529;BME280;35423;37.320;-121.762;2023-03-20T11:00:55;99709.85;;;19.09;31.50
49529;BME280;35423;37.320;-121.762;2023-03-20T11:03:21;99706.13;;;18.84;31.57
49529;BME280;35423;37.320;-121.762;2023-03-20T11:05:43;99715.41;;;18.81;31.70
49529;BME280;35423;37.320;-121.762;2023-03-20T11:08:13;99712.96;;;18.80;31.74
49529;BME280;35423;37.320;-121.762;2023-03-20T11:10:37;99718.51;;;18.95;31.81
49529;BME280;35423;37.320;-121.762;2023-03-20T11:13:13;99714.64;;;18.71;31.76
49529;BME280;35423;37.320;-121.762;2023-03-20T11:15:32;99707.24;;;18.70;31.69
49529;BME280;35423;37.320;-121.762;2023-03-20T11:17:56;99708.87;;;18.89;31.69
49529;BME280;35423;37.320;-121.762;2023-03-20T11:20:23;99708.47;;;18.64;31.65
49529;BME280;35423;37.320;-121.762;2023-03-20T11:22:49;99705.72;;;18.57;31.64
49529;BME280;35423;37.320;-121.762;2023-03-20T11:27:40;99700.95;;;18.91;31.47
49529;BME280;35423;37.320;-121.762;2023-03-20T11:30:10;99696.09;;;18.62;31.51
49529;BME280;35423;37.320;-121.762;2023-03-20T11:32:35;99687.35;;;18.84;31.57
49529;BME280;35423;37.320;-121.762;2023-03-20T11:37:35;99679.02;;;18.84;31.62
49529;BME280;35423;37.320;-121.762;2023-03-20T11:40:09;99679.95;;;18.55;31.65
49529;BME280;35423;37.320;-121.762;2023-03-20T11:42:29;99679.78;;;18.32;31.71
49529;BME280;35423;37.320;-121.762;2023-03-20T11:45:03;99675.75;;;18.29;31.71
49529;BME280;35423;37.320;-121.762;2023-03-20T11:47:28;99671.54;;;18.48;31.75
49529;BME280;35423;37.320;-121.762;2023-03-20T11:50:02;99666.36;;;18.68;31.80
49529;BME280;35423;37.320;-121.762;2023-03-20T11:52:30;99671.81;;;18.66;31.77
49529;BME280;35423;37.320;-121.762;2023-03-20T11:54:54;99672.12;;;18.17;31.62
49529;BME280;35423;37.320;-121.762;2023-03-20T11:57:28;99666.08;;;18.34;31.62
49529;BME280;35423;37.320;-121.762;2023-03-20T11:59:45;99657.83;;;18.27;31.75
49529;BME280;35423;37.320;-121.762;2023-03-20T12:02:24;99659.78;;;18.25;31.81
49529;BME280;35423;37.320;-121.762;2023-03-20T12:04:37;99664.07;;;18.21;31.81
49529;BME280;35423;37.320;-121.762;2023-03-20T12:07:05;99670.61;;;18.21;31.85
49529;BME280;35423;37.320;-121.762;2023-03-20T12:09:38;99674.45;;;18.18;31.89
49529;BME280;35423;37.320;-121.762;2023-03-20T12:12:00;99673.59;;;18.41;32.00
49529;BME280;35423;37.320;-121.762;2023-03-20T12:14:29;99678.39;;;18.41;32.08
49529;BME280;35423;37.320;-121.762;2023-03-20T12:16:55;99678.34;;;18.43;32.00
49529;BME280;35423;37.320;-121.762;2023-03-20T12:19:21;99680.73;;;18.09;32.05
49529;BME280;35423;37.320;-121.762;2023-03-20T12:21:49;99688.25;;;18.06;32.15
49529;BME280;35423;37.320;-121.762;2023-03-20T12:24:14;99693.77;;;17.82;32.20
49529;BME280;35423;37.320;-121.762;2023-03-20T12:26:38;99693.71;;;18.34;32.23
49529;BME280;35423;37.320;-121.762;2023-03-20T12:29:06;99703.14;;;18.05;32.27
49529;BME280;35423;37.320;-121.762;2023-03-20T12:31:34;99703.86;;;18.34;32.27
49529;BME280;35423;37.320;-121.762;2023-03-20T12:34:04;99717.88;;;18.33;32.36
49529;BME280;35423;37.320;-121.762;2023-03-20T12:36:31;99728.43;;;18.34;32.48
49529;BME280;35423;37.320;-121.762;2023-03-20T12:39:02;99733.18;;;18.34;32.52
49529;BME280;35423;37.320;-121.762;2023-03-20T12:41:37;99736.88;;;18.30;32.52
49529;BME280;35423;37.320;-121.762;2023-03-20T12:44:06;99736.32;;;18.29;32.51
49529;BME280;35423;37.320;-121.762;2023-03-20T12:46:27;99743.04;;;18.00;32.54
49529;BME280;35423;37.320;-121.762;2023-03-20T12:48:55;99747.64;;;18.26;32.59